Time;durP1;ratioP1;P1;durP2;ratioP2;P2;SDS_P1;SDS_P2;PMS_P1;PMS_P2;Temp;Humidity;BMP_temperature;BMP_pressure;BME280_temperature;BME280_humidity;BME280_pressure;Samples;Min_cycle;Max_cycle;Signal;HPM_P1;HPM_P2
2022/09/09 00:00:49;;;;;;;;;;;;;;;28.51;41.47;94036.41;4913835;29;7246;-60
2022/09/09 00:04:02;;;;;;;;;;;;;;;28.52;41.20;94034.38;4913849;29;7211;-59
2022/09/09 00:07:03;;;;;;;;;;;;;;;28.50;40.96;94023.84;4928195;29;7237;-59
2022/09/09 00:10:13;;;;;;;;;;;;;;;28.49;41.28;94027.91;4899324;29;7085;-59
2022/09/09 00:13:01;;;;;;;;;;;;;;;28.48;41.78;94026.41;4892299;29;9303;-60
2022/09/09 00:15:59;;;;;;;;;;;;;;;28.48;41.85;94029.16;4895239;29;9543;-59
2022/09/09 00:18:50;;;;;;;;;;;;;;;28.46;41.45;94026.22;4876631;29;7388;-60
2022/09/09 00:22:02;;;;;;;;;;;;;;;28.45;41.64;94033.00;4877410;29;9433;-60
2022/09/09 00:25:16;;;;;;;;;;;;;;;28.45;41.27;94021.94;4873214;29;7437;-60
2022/09/09 00:27:59;;;;;;;;;;;;;;;28.45;41.40;94026.75;4861176;29;7144;-60
2022/09/09 00:30:49;;;;;;;;;;;;;;;28.43;41.62;94030.03;4864647;29;9000;-60
2022/09/09 00:33:23;;;;;;;;;;;;;;;28.41;41.85;94020.78;4863814;29;6946;-60
2022/09/09 00:36:02;;;;;;;;;;;;;;;28.38;41.84;94024.66;4846757;29;7235;-60
2022/09/09 00:38:36;;;;;;;;;;;;;;;28.36;41.17;94019.66;4864437;29;7173;-60
2022/09/09 00:41:26;;;;;;;;;;;;;;;28.35;41.12;94018.91;4863212;29;7319;-60
2022/09/09 00:44:00;;;;;;;;;;;;;;;28.34;41.72;94011.88;4844429;29;7195;-60
2022/09/09 00:46:28;;;;;;;;;;;;;;;28.34;41.70;94016.66;4872896;29;7731;-60
2022/09/09 00:49:31;;;;;;;;;;;;;;;28.35;41.69;94023.69;4913585;29;9108;-60
2022/09/09 00:52:24;;;;;;;;;;;;;;;28.34;41.54;94024.97;4926140;29;7210;-59
2022/09/09 00:55:18;;;;;;;;;;;;;;;28.31;41.73;94028.81;4919475;29;7633;-60
2022/09/09 00:57:53;;;;;;;;;;;;;;;28.29;41.71;94026.59;4917168;29;7313;-60
2022/09/09 01:00:48;;;;;;;;;;;;;;;28.32;41.68;94022.00;4915877;29;7022;-59
2022/09/09 01:03:45;;;;;;;;;;;;;;;28.35;41.70;94032.00;4925962;28;7309;-60
2022/09/09 01:06:57;;;;;;;;;;;;;;;28.38;41.34;94017.81;4991502;28;7596;-60
2022/09/09 01:10:00;;;;;;;;;;;;;;;28.40;41.18;94022.84;4944892;28;8243;-59
2022/09/09 01:13:00;;;;;;;;;;;;;;;28.40;41.40;94020.06;4876933;29;7323;-60
2022/09/09 01:15:32;;;;;;;;;;;;;;;28.42;41.13;94019.50;4873549;29;7168;-60
2022/09/09 01:18:07;;;;;;;;;;;;;;;28.42;41.14;94020.25;4890958;29;7866;-60
2022/09/09 01:21:07;;;;;;;;;;;;;;;28.45;41.14;94026.75;4874215;29;7287;-59
2022/09/09 01:24:05;;;;;;;;;;;;;;;28.44;41.08;94017.69;4886033;29;7287;-59
2022/09/09 01:27:10;;;;;;;;;;;;;;;28.47;41.40;94016.59;4861352;29;9735;-59
2022/09/09 01:30:09;;;;;;;;;;;;;;;28.49;41.12;94024.38;4843007;29;7509;-60
2022/09/09 01:33:16;;;;;;;;;;;;;;;28.50;41.17;94020.31;4805731;29;7227;-59
2022/09/09 01:36:20;;;;;;;;;;;;;;;28.48;41.15;94020.88;4772141;29;8750;-59
2022/09/09 01:38:48;;;;;;;;;;;;;;;28.47;41.03;94022.13;4755539;29;8605;-60
2022/09/09 01:41:16;;;;;;;;;;;;;;;28.46;41.40;94023.44;4764994;29;7960;-59
2022/09/09 01:43:42;;;;;;;;;;;;;;;28.44;40.95;94026.00;4764549;29;7782;-60
2022/09/09 01:46:22;;;;;;;;;;;;;;;28.45;40.97;94023.97;4793749;29;8098;-60
2022/09/09 01:49:09;;;;;;;;;;;;;;;28.45;41.33;94021.94;4836162;29;7504;-60
2022/09/09 01:51:51;;;;;;;;;;;;;;;28.46;41.03;94025.47;4836896;29;8021;-60
2022/09/09 01:54:32;;;;;;;;;;;;;;;28.46;40.97;94031.75;4837303;29;7379;-60
2022/09/09 01:57:35;;;;;;;;;;;;;;;28.46;41.17;94033.75;4852867;29;6994;-60
2022/09/09 02:00:13;;;;;;;;;;;;;;;28.45;41.40;94038.53;4853941;29;7077;-60
2022/09/09 02:02:53;;;;;;;;;;;;;;;28.45;41.12;94044.06;4823900;29;7986;-60
2022/09/09 02:05:48;;;;;;;;;;;;;;;28.44;41.22;94042.59;4841437;29;9406;-60
2022/09/09 02:08:50;;;;;;;;;;;;;;;28.43;41.19;94046.63;4849745;29;8271;-59
2022/09/09 02:11:28;;;;;;;;;;;;;;;28.42;41.42;94050.69;4971839;28;7254;-60
2022/09/09 02:14:02;;;;;;;;;;;;;;;28.42;40.99;94044.41;4959083;28;7486;-60
2022/09/09 02:16:47;;;;;;;;;;;;;;;28.42;41.16;94047.94;4953378;28;7515;-59
2022/09/09 02:22:35;;;;;;;;;;;;;;;28.39;41.07;94051.75;4971653;28;7319;-59
2022/09/09 02:25:07;;;;;;;;;;;;;;;28.40;40.80;94046.97;4956347;28;7466;-60
2022/09/09 02:27:33;;;;;;;;;;;;;;;28.40;40.95;94052.50;4969201;28;7736;-59
2022/09/09 02:30:06;;;;;;;;;;;;;;;28.38;41.13;94053.78;4968195;28;7485;-60
2022/09/09 02:32:41;;;;;;;;;;;;;;;28.39;40.70;94057.28;4971590;28;7452;-59
2022/09/09 02:35:24;;;;;;;;;;;;;;;28.36;41.33;94052.84;4968599;28;9618;-60
2022/09/09 02:38:13;;;;;;;;;;;;;;;28.38;41.07;94059.31;4957541;28;7377;-59
2022/09/09 02:40:41;;;;;;;;;;;;;;;28.36;40.89;94061.88;4971809;28;9236;-59
2022/09/09 02:43:09;;;;;;;;;;;;;;;28.37;41.75;94073.69;4956166;28;7132;-60
2022/09/09 02:45:49;;;;;;;;;;;;;;;28.34;40.98;94066.44;4981710;28;7187;-60
2022/09/09 02:48:40;;;;;;;;;;;;;;;28.36;40.87;94066.69;4991530;28;7143;-59
2022/09/09 02:51:18;;;;;;;;;;;;;;;28.35;41.02;94067.94;4991999;28;7290;-59
2022/09/09 02:54:10;;;;;;;;;;;;;;;28.34;40.93;94072.72;4992819;28;6983;-60
2022/09/09 02:56:41;;;;;;;;;;;;;;;28.36;41.25;94080.50;4991610;28;9317;-60
2022/09/09 02:59:13;;;;;;;;;;;;;;;28.32;40.89;94075.28;4989986;28;7208;-60
2022/09/09 03:02:09;;;;;;;;;;;;;;;28.32;40.90;94075.28;4989841;28;7771;-60
2022/09/09 03:04:37;;;;;;;;;;;;;;;28.30;41.00;94079.88;4992959;28;7327;-59
2022/09/09 03:07:16;;;;;;;;;;;;;;;28.29;41.55;94081.91;4989187;28;7163;-60
2022/09/09 03:09:43;;;;;;;;;;;;;;;28.27;41.32;94084.44;4977468;28;7121;-60
2022/09/09 03:12:19;;;;;;;;;;;;;;;28.26;41.33;94082.97;5009669;28;7422;-60
2022/09/09 03:14:53;;;;;;;;;;;;;;;28.27;41.05;94081.69;4991865;28;6985;-60
2022/09/09 03:17:20;;;;;;;;;;;;;;;28.23;41.13;94080.56;4991430;28;7574;-60
2022/09/09 03:20:08;;;;;;;;;;;;;;;28.27;41.07;94094.78;4992901;28;7293;-60
2022/09/09 03:22:56;;;;;;;;;;;;;;;28.28;41.30;94082.44;4993534;28;7296;-60
2022/09/09 03:25:58;;;;;;;;;;;;;;;28.27;41.43;94089.25;4994132;28;7053;-60
2022/09/09 03:28:39;;;;;;;;;;;;;;;28.25;41.16;94089.06;4991240;28;7229;-59
2022/09/09 03:31:16;;;;;;;;;;;;;;;28.26;41.33;94088.50;5007767;28;9251;-60
2022/09/09 03:34:03;;;;;;;;;;;;;;;28.26;41.19;94082.22;4991088;28;7676;-60
2022/09/09 03:36:32;;;;;;;;;;;;;;;28.24;41.49;94084.78;4987627;28;7107;-60
2022/09/09 03:39:04;;;;;;;;;;;;;;;28.25;41.24;94080.75;4988249;28;7424;-59
2022/09/09 03:41:39;;;;;;;;;;;;;;;28.24;40.77;94082.78;4992213;28;7070;-60
2022/09/09 03:44:07;;;;;;;;;;;;;;;28.24;41.33;94085.53;5007443;28;6993;-59
2022/09/09 03:46:33;;;;;;;;;;;;;;;28.22;41.12;94068.75;4986366;28;8180;-60
2022/09/09 03:49:04;;;;;;;;;;;;;;;28.26;41.15;94071.16;5008900;28;7062;-59
2022/09/09 03:51:38;;;;;;;;;;;;;;;28.26;41.30;94063.63;4994220;28;7392;-60
2022/09/09 03:54:10;;;;;;;;;;;;;;;28.24;40.95;94070.97;4996188;28;7048;-60
2022/09/09 03:56:41;;;;;;;;;;;;;;;28.25;41.01;94064.16;4990313;28;7484;-59
2022/09/09 03:59:25;;;;;;;;;;;;;;;28.25;41.25;94066.94;4992668;28;7044;-60
2022/09/09 04:01:51;;;;;;;;;;;;;;;28.23;41.07;94067.44;5011324;28;10411;-60
2022/09/09 04:04:48;;;;;;;;;;;;;;;28.24;41.30;94068.94;4998862;28;8641;-60
2022/09/09 04:08:09;;;;;;;;;;;;;;;28.23;41.08;94061.91;4964472;28;8941;-60
2022/09/09 04:10:48;;;;;;;;;;;;;;;28.22;41.31;94073.53;4927539;29;7379;-60
2022/09/09 04:13:17;;;;;;;;;;;;;;;28.22;41.20;94070.75;4908152;29;7489;-59
2022/09/09 04:16:03;;;;;;;;;;;;;;;28.21;41.01;94074.78;4925261;29;7721;-59
2022/09/09 04:18:30;;;;;;;;;;;;;;;28.19;41.25;94072.56;4923312;29;9478;-60
2022/09/09 04:20:57;;;;;;;;;;;;;;;28.19;41.17;94066.28;4923698;29;10536;-59
2022/09/09 04:23:29;;;;;;;;;;;;;;;28.19;40.82;94080.84;4900551;29;7149;-59
2022/09/09 04:25:57;;;;;;;;;;;;;;;28.17;41.16;94079.91;4915089;29;7140;-60
2022/09/09 04:28:25;;;;;;;;;;;;;;;28.16;41.30;94079.19;4916652;29;9100;-60
2022/09/09 04:30:52;;;;;;;;;;;;;;;28.16;41.39;94075.66;4906877;29;7148;-60
2022/09/09 04:33:19;;;;;;;;;;;;;;;28.16;41.23;94073.66;4903931;29;9507;-60
2022/09/09 04:35:48;;;;;;;;;;;;;;;28.17;40.44;94072.34;4920327;29;7365;-60
2022/09/09 04:38:31;;;;;;;;;;;;;;;28.14;41.25;94059.59;4892931;29;9347;-60
2022/09/09 04:40:57;;;;;;;;;;;;;;;28.15;41.35;94063.84;4915547;29;7267;-60
2022/09/09 04:43:25;;;;;;;;;;;;;;;28.13;41.57;94062.91;4904709;28;7424;-60
2022/09/09 04:45:56;;;;;;;;;;;;;;;28.12;41.31;94067.69;4987700;28;7245;-60
2022/09/09 04:48:31;;;;;;;;;;;;;;;28.17;40.86;94079.91;4989444;28;6981;-60
2022/09/09 04:51:19;;;;;;;;;;;;;;;28.15;41.25;94068.63;5010005;28;7238;-61
2022/09/09 04:53:53;;;;;;;;;;;;;;;28.10;41.28;94077.81;5007541;28;7376;-60
2022/09/09 04:56:31;;;;;;;;;;;;;;;28.10;41.08;94075.06;4997874;28;9142;-60
2022/09/09 04:59:07;;;;;;;;;;;;;;;28.10;41.69;94069.53;4988507;28;9312;-61
2022/09/09 05:01:40;;;;;;;;;;;;;;;28.06;41.41;94074.59;4999428;28;7298;-60
2022/09/09 05:04:10;;;;;;;;;;;;;;;28.01;41.42;94075.50;4993311;28;7271;-61
2022/09/09 05:06:38;;;;;;;;;;;;;;;27.98;41.56;94069.00;4991427;28;7145;-60
2022/09/09 05:09:17;;;;;;;;;;;;;;;27.99;41.71;94073.22;5008018;28;7204;-60
2022/09/09 05:11:46;;;;;;;;;;;;;;;28.04;41.33;94068.88;4979703;28;6970;-60
2022/09/09 05:14:17;;;;;;;;;;;;;;;28.05;41.07;94067.59;4997387;28;7328;-61
2022/09/09 05:17:02;;;;;;;;;;;;;;;28.06;41.28;94075.34;4989039;28;9349;-61
2022/09/09 05:19:30;;;;;;;;;;;;;;;28.07;41.60;94070.56;4994282;28;7415;-60
2022/09/09 05:21:57;;;;;;;;;;;;;;;28.07;41.08;94071.31;4995595;28;7584;-61
2022/09/09 05:24:32;;;;;;;;;;;;;;;28.05;41.42;94071.13;4994333;28;7198;-60
2022/09/09 05:27:07;;;;;;;;;;;;;;;28.03;41.29;94064.63;4991488;28;7211;-61
2022/09/09 05:29:41;;;;;;;;;;;;;;;28.06;41.52;94071.84;5007538;28;8009;-61
2022/09/09 05:32:15;;;;;;;;;;;;;;;28.08;41.46;94069.28;4990085;28;6949;-60
2022/09/09 05:34:59;;;;;;;;;;;;;;;28.05;41.54;94065.59;4988677;28;7245;-60
2022/09/09 05:37:45;;;;;;;;;;;;;;;28.07;41.76;94076.84;4985609;28;7403;-61
2022/09/09 05:40:15;;;;;;;;;;;;;;;28.08;41.76;94077.56;5006142;28;7350;-61
2022/09/09 05:42:42;;;;;;;;;;;;;;;28.06;41.27;94080.88;4986692;28;7962;-61
2022/09/09 05:45:13;;;;;;;;;;;;;;;28.05;41.81;94086.97;5005617;28;7385;-61
2022/09/09 05:47:39;;;;;;;;;;;;;;;28.05;41.57;94084.19;4991379;28;7468;-61
2022/09/09 05:50:05;;;;;;;;;;;;;;;28.04;41.20;94088.22;4992500;28;7518;-61
2022/09/09 05:52:40;;;;;;;;;;;;;;;28.01;41.32;94084.53;5008156;28;7457;-61
2022/09/09 05:55:07;;;;;;;;;;;;;;;28.02;41.21;94099.06;5006378;28;7423;-61
2022/09/09 05:57:37;;;;;;;;;;;;;;;28.04;41.45;94088.22;4991486;28;9724;-61
2022/09/09 06:00:07;;;;;;;;;;;;;;;28.01;41.57;94086.53;4983972;28;7057;-61
2022/09/09 06:02:52;;;;;;;;;;;;;;;28.03;41.37;94093.03;5002718;28;7065;-61
2022/09/09 06:05:22;;;;;;;;;;;;;;;28.04;41.62;94099.28;4989896;28;7374;-60
2022/09/09 06:07:55;;;;;;;;;;;;;;;28.03;41.17;94095.03;5004987;28;7208;-60
2022/09/09 06:10:24;;;;;;;;;;;;;;;28.04;40.88;94093.75;4985725;28;9555;-61
2022/09/09 06:12:57;;;;;;;;;;;;;;;28.01;41.32;94094.84;4985961;28;6981;-61
2022/09/09 06:15:36;;;;;;;;;;;;;;;28.04;41.25;94104.81;4988793;28;6860;-61
2022/09/09 06:18:12;;;;;;;;;;;;;;;28.05;41.67;94095.25;4988796;28;7364;-61
2022/09/09 06:20:38;;;;;;;;;;;;;;;28.06;41.34;94093.97;4982949;28;7174;-60
2022/09/09 06:23:44;;;;;;;;;;;;;;;28.05;41.32;94089.72;5011579;28;6992;-61
2022/09/09 06:29:44;;;;;;;;;;;;;;;28.03;41.47;94086.75;4950093;29;7596;-61
2022/09/09 06:32:20;;;;;;;;;;;;;;;28.04;41.36;94088.97;4945385;29;7258;-61
2022/09/09 06:34:49;;;;;;;;;;;;;;;28.04;41.50;94088.97;4932181;29;7205;-61
2022/09/09 06:37:20;;;;;;;;;;;;;;;28.03;41.28;94087.50;4933650;29;6931;-61
2022/09/09 06:39:46;;;;;;;;;;;;;;;28.07;40.98;94078.88;4931767;29;7509;-61
2022/09/09 06:42:12;;;;;;;;;;;;;;;28.06;41.49;94082.91;4934078;29;8348;-60
2022/09/09 06:44:38;;;;;;;;;;;;;;;28.06;41.07;94077.38;4939451;29;7884;-60
2022/09/09 06:47:06;;;;;;;;;;;;;;;28.03;41.24;94070.91;4943304;29;7238;-61
2022/09/09 06:49:32;;;;;;;;;;;;;;;28.06;40.90;94077.38;4951289;28;7404;-61
2022/09/09 06:51:58;;;;;;;;;;;;;;;28.05;41.23;94076.66;4953692;28;7225;-61
2022/09/09 06:55:04;;;;;;;;;;;;;;;28.06;41.18;94080.88;4939176;28;7221;-61
2022/09/09 06:57:55;;;;;;;;;;;;;;;28.05;41.08;94078.66;4937704;28;8471;-61
2022/09/09 07:00:33;;;;;;;;;;;;;;;28.02;41.41;94085.25;4952178;28;8705;-61
2022/09/09 07:03:10;;;;;;;;;;;;;;;27.99;41.33;94078.03;4938236;28;8934;-61
2022/09/09 07:06:14;;;;;;;;;;;;;;;27.98;41.28;94084.84;4956352;28;7229;-61
2022/09/09 07:09:03;;;;;;;;;;;;;;;27.97;41.56;94086.84;4950274;28;7358;-61
2022/09/09 07:11:33;;;;;;;;;;;;;;;27.99;41.27;94086.34;4953893;28;7211;-61
2022/09/09 07:14:17;;;;;;;;;;;;;;;27.99;41.39;94091.88;4933772;28;7368;-61
2022/09/09 07:17:00;;;;;;;;;;;;;;;27.97;41.44;94086.84;4937301;28;7180;-61
2022/09/09 07:19:28;;;;;;;;;;;;;;;27.97;41.07;94083.34;4938136;28;7347;-61
2022/09/09 07:21:58;;;;;;;;;;;;;;;27.97;41.29;94083.34;4951522;28;6978;-61
2022/09/09 07:24:30;;;;;;;;;;;;;;;27.98;41.63;94080.06;4931927;28;7186;-60
2022/09/09 07:27:05;;;;;;;;;;;;;;;27.96;41.25;94085.34;4951398;28;7112;-61
2022/09/09 07:29:42;;;;;;;;;;;;;;;27.96;41.33;94082.59;4935563;28;7237;-61
2022/09/09 07:32:08;;;;;;;;;;;;;;;27.96;41.63;94087.38;4948467;28;10518;-61
2022/09/09 07:34:45;;;;;;;;;;;;;;;27.96;41.49;94095.66;4947563;28;9091;-61
2022/09/09 07:37:35;;;;;;;;;;;;;;;27.98;41.26;94090.38;4937631;28;8376;-61
2022/09/09 07:40:22;;;;;;;;;;;;;;;28.00;41.49;94104.41;4952185;28;7637;-61
2022/09/09 07:42:50;;;;;;;;;;;;;;;28.01;41.68;94098.34;4953950;28;7199;-61
2022/09/09 07:45:16;;;;;;;;;;;;;;;28.01;41.29;94100.38;4959943;28;8217;-61
2022/09/09 07:47:42;;;;;;;;;;;;;;;28.00;41.41;94098.88;5009568;28;6950;-61
2022/09/09 07:50:11;;;;;;;;;;;;;;;28.01;41.28;94101.13;4988054;28;7152;-60
2022/09/09 07:53:10;;;;;;;;;;;;;;;28.00;41.56;94116.22;4975139;28;7510;-61
2022/09/09 07:55:47;;;;;;;;;;;;;;;28.00;41.61;94110.69;4930913;29;9271;-61
2022/09/09 07:58:27;;;;;;;;;;;;;;;27.99;41.34;94103.66;4914602;29;7571;-60
2022/09/09 08:01:39;;;;;;;;;;;;;;;28.02;41.17;94110.88;4914532;29;7305;-61
2022/09/09 08:04:15;;;;;;;;;;;;;;;28.00;41.07;94105.16;4886879;29;7311;-61
2022/09/09 08:06:49;;;;;;;;;;;;;;;28.02;41.20;94105.34;4885445;29;7128;-61
2022/09/09 08:09:15;;;;;;;;;;;;;;;28.00;41.77;94102.38;4887196;29;7149;-61
2022/09/09 08:11:42;;;;;;;;;;;;;;;28.02;41.41;94099.81;4881753;29;9943;-61
2022/09/09 08:14:25;;;;;;;;;;;;;;;28.03;41.61;94111.63;4883731;29;7014;-61
2022/09/09 08:17:10;;;;;;;;;;;;;;;28.02;41.90;94118.44;4887138;29;7213;-61
2022/09/09 08:19:41;;;;;;;;;;;;;;;28.01;41.15;94117.72;4881281;29;7350;-61
2022/09/09 08:22:08;;;;;;;;;;;;;;;28.01;41.29;94128.75;4882541;29;7259;-61
2022/09/09 08:24:34;;;;;;;;;;;;;;;28.01;41.38;94128.75;4882925;29;7493;-60
2022/09/09 08:27:00;;;;;;;;;;;;;;;28.03;41.61;94117.16;4868694;29;8869;-60
2022/09/09 08:29:26;;;;;;;;;;;;;;;28.03;41.72;94125.47;4880475;29;9371;-60
2022/09/09 08:31:57;;;;;;;;;;;;;;;28.02;41.33;94129.50;4917244;28;7858;-60
2022/09/09 08:34:26;;;;;;;;;;;;;;;28.01;41.21;94125.25;4947997;28;7236;-60
2022/09/09 08:36:53;;;;;;;;;;;;;;;28.02;41.18;94115.66;4948731;28;7372;-60
2022/09/09 08:39:24;;;;;;;;;;;;;;;28.02;41.20;94118.44;4951248;28;7287;-60
2022/09/09 08:42:20;;;;;;;;;;;;;;;28.04;41.44;94118.63;4972568;28;7637;-61
2022/09/09 08:45:01;;;;;;;;;;;;;;;28.05;41.86;94122.91;4993472;28;7173;-60
2022/09/09 08:47:49;;;;;;;;;;;;;;;28.05;41.72;94122.91;4999290;28;8018;-60
2022/09/09 08:50:24;;;;;;;;;;;;;;;28.05;41.39;94122.91;4995822;28;7076;-60
2022/09/09 08:53:20;;;;;;;;;;;;;;;28.04;41.21;94116.63;4992437;28;7313;-60
2022/09/09 08:56:00;;;;;;;;;;;;;;;28.04;42.00;94122.16;4972859;28;7256;-60
2022/09/09 08:58:46;;;;;;;;;;;;;;;28.05;41.85;94131.94;4989583;28;7308;-60
2022/09/09 09:02:12;;;;;;;;;;;;;;;28.06;41.47;94132.66;5006644;28;7257;-60
2022/09/09 09:05:05;;;;;;;;;;;;;;;28.05;41.46;94129.19;4957029;28;9343;-60
2022/09/09 09:07:43;;;;;;;;;;;;;;;28.06;41.45;94125.13;4954281;28;9276;-60
2022/09/09 09:11:03;;;;;;;;;;;;;;;28.06;41.46;94111.31;4965925;28;7128;-60
2022/09/09 09:13:51;;;;;;;;;;;;;;;28.07;41.27;94123.13;4893508;29;7546;-60
2022/09/09 09:16:20;;;;;;;;;;;;;;;28.07;41.38;94117.59;4889359;29;7284;-60
2022/09/09 09:18:51;;;;;;;;;;;;;;;28.06;41.27;94114.06;4889422;29;7223;-60
2022/09/09 09:21:56;;;;;;;;;;;;;;;28.09;41.46;94120.56;4889236;29;7563;-60
2022/09/09 09:24:59;;;;;;;;;;;;;;;28.09;41.35;94121.31;4870622;29;7225;-60
2022/09/09 09:27:33;;;;;;;;;;;;;;;28.07;41.83;94115.56;4890394;29;7215;-60
2022/09/09 09:30:05;;;;;;;;;;;;;;;28.07;41.52;94121.09;4887704;29;7066;-60
2022/09/09 09:33:19;;;;;;;;;;;;;;;28.07;41.66;94123.13;4872579;29;7471;-60
2022/09/09 09:35:51;;;;;;;;;;;;;;;28.07;41.80;94120.34;4865580;29;9298;-60
2022/09/09 09:38:30;;;;;;;;;;;;;;;28.05;41.36;94123.66;4880505;29;7000;-60
2022/09/09 09:40:58;;;;;;;;;;;;;;;28.03;41.54;94120.69;4894603;29;7432;-60
2022/09/09 09:43:32;;;;;;;;;;;;;;;28.01;41.84;94117.72;4888229;29;7173;-59
2022/09/09 09:45:59;;;;;;;;;;;;;;;28.00;42.19;94120.97;4881088;29;9339;-59
2022/09/09 09:48:27;;;;;;;;;;;;;;;27.98;41.77;94120.78;4907535;29;7342;-60
2022/09/09 09:50:56;;;;;;;;;;;;;;;28.00;41.40;94112.69;4913740;29;7242;-60
2022/09/09 09:53:26;;;;;;;;;;;;;;;28.00;41.54;94112.69;4913396;29;7072;-60
2022/09/09 09:56:14;;;;;;;;;;;;;;;28.01;42.18;94111.44;4928208;29;9053;-60
2022/09/09 09:58:53;;;;;;;;;;;;;;;28.00;41.89;94099.63;4912687;29;7562;-60
2022/09/09 10:01:26;;;;;;;;;;;;;;;28.01;41.44;94100.38;4911056;29;8142;-60
2022/09/09 10:04:23;;;;;;;;;;;;;;;28.02;41.82;94112.91;4931555;29;7229;-60
2022/09/09 10:06:54;;;;;;;;;;;;;;;27.99;41.76;94125.03;4897633;29;6993;-60
2022/09/09 10:09:28;;;;;;;;;;;;;;;27.97;41.81;94141.38;4913775;29;7124;-60
2022/09/09 10:12:14;;;;;;;;;;;;;;;27.95;42.22;94169.56;4977562;28;7878;-60
2022/09/09 10:15:13;;;;;;;;;;;;;;;27.95;41.74;94168.81;4992170;28;9107;-60
2022/09/09 10:17:50;;;;;;;;;;;;;;;27.92;41.94;94180.94;5000064;28;7117;-60
2022/09/09 10:20:31;;;;;;;;;;;;;;;27.92;41.68;94172.63;5009108;28;7261;-60
2022/09/09 10:23:14;;;;;;;;;;;;;;;27.92;41.82;94165.09;5006991;28;7114;-60
2022/09/09 10:26:30;;;;;;;;;;;;;;;27.91;42.22;94154.56;5010873;28;7286;-60
2022/09/09 10:29:16;;;;;;;;;;;;;;;27.95;41.43;94143.94;4969564;28;9718;-60
2022/09/09 10:32:24;;;;;;;;;;;;;;;28.00;41.50;94140.34;4968872;28;7080;-60
2022/09/09 10:35:04;;;;;;;;;;;;;;;28.02;41.55;94146.81;4970793;28;7176;-61
2022/09/09 10:37:59;;;;;;;;;;;;;;;28.00;41.84;94132.03;4966094;28;7299;-61
2022/09/09 10:40:51;;;;;;;;;;;;;;;28.01;42.01;94133.53;4937413;28;7166;-61
2022/09/09 10:43:39;;;;;;;;;;;;;;;27.98;41.69;94129.81;4967869;28;8488;-61
2022/09/09 10:46:18;;;;;;;;;;;;;;;27.97;41.38;94133.84;4971790;28;9707;-61
2022/09/09 10:49:23;;;;;;;;;;;;;;;28.00;41.67;94135.56;4970495;28;7522;-61
2022/09/09 10:52:17;;;;;;;;;;;;;;;28.00;41.53;94132.03;4972185;28;9216;-61
2022/09/09 10:55:21;;;;;;;;;;;;;;;28.02;41.72;94140.53;4972793;28;7525;-60
2022/09/09 10:58:06;;;;;;;;;;;;;;;28.03;41.74;94136.53;4956173;28;6884;-60
2022/09/09 11:00:47;;;;;;;;;;;;;;;28.03;41.52;94131.75;4958048;28;7344;-60
2022/09/09 11:03:29;;;;;;;;;;;;;;;28.06;41.04;94124.38;4991063;28;7119;-61
2022/09/09 11:06:20;;;;;;;;;;;;;;;28.06;41.72;94124.38;4997442;28;7511;-60
2022/09/09 11:08:52;;;;;;;;;;;;;;;28.07;41.68;94123.88;5011008;28;7164;-61
2022/09/09 11:11:48;;;;;;;;;;;;;;;28.08;41.58;94116.28;5003425;28;9582;-61
2022/09/09 11:14:37;;;;;;;;;;;;;;;28.09;41.27;94117.78;5001249;28;7324;-61
2022/09/09 11:17:18;;;;;;;;;;;;;;;28.09;41.79;94117.78;4996483;28;8446;-61
2022/09/09 11:20:25;;;;;;;;;;;;;;;28.12;41.65;94108.44;4994297;28;6975;-61
2022/09/09 11:23:23;;;;;;;;;;;;;;;28.12;41.64;94111.94;5006925;28;8498;-61
2022/09/09 11:26:03;;;;;;;;;;;;;;;28.13;42.20;94110.66;4953106;28;7127;-61
2022/09/09 11:28:47;;;;;;;;;;;;;;;28.13;42.00;94107.16;4953681;28;7344;-60
2022/09/09 11:31:50;;;;;;;;;;;;;;;28.15;41.53;94116.41;4951362;28;8443;-60
2022/09/09 11:34:37;;;;;;;;;;;;;;;28.15;41.74;94104.59;4951955;28;9386;-61
2022/09/09 11:37:21;;;;;;;;;;;;;;;28.16;41.68;94104.06;4948163;28;7913;-60
2022/09/09 11:40:10;;;;;;;;;;;;;;;28.17;41.75;94108.31;4950408;28;7669;-61
2022/09/09 11:43:13;;;;;;;;;;;;;;;28.18;42.03;94106.28;4951772;28;7367;-61
2022/09/09 11:45:58;;;;;;;;;;;;;;;28.17;42.27;94102.78;4952533;28;7287;-61
2022/09/09 11:48:37;;;;;;;;;;;;;;;28.18;42.20;94098.00;4937416;28;9566;-61
2022/09/09 11:51:12;;;;;;;;;;;;;;;28.19;41.73;94105.75;4950297;28;9136;-61
2022/09/09 11:53:58;;;;;;;;;;;;;;;28.22;42.35;94103.94;4952288;28;9221;-61
2022/09/09 11:56:34;;;;;;;;;;;;;;;28.24;41.85;94101.38;4937921;28;7210;-61
2022/09/09 11:59:22;;;;;;;;;;;;;;;28.21;42.29;94094.16;4952965;28;7183;-61
2022/09/09 12:02:18;;;;;;;;;;;;;;;28.22;42.33;94104.69;4959651;28;7211;-61
2022/09/09 12:05:12;;;;;;;;;;;;;;;28.25;42.26;94102.88;4995362;28;7227;-61
2022/09/09 12:07:56;;;;;;;;;;;;;;;28.24;41.72;94109.69;4993127;28;7265;-61
2022/09/09 12:10:39;;;;;;;;;;;;;;;28.26;42.10;94101.59;5009637;28;7324;-61
2022/09/09 12:13:27;;;;;;;;;;;;;;;28.22;42.59;94093.63;5003984;28;9430;-60
2022/09/09 12:16:05;;;;;;;;;;;;;;;28.28;42.19;94094.25;4992367;28;7212;-60
2022/09/09 12:18:44;;;;;;;;;;;;;;;28.32;42.24;94091.88;4991308;28;8932;-60
2022/09/09 12:21:47;;;;;;;;;;;;;;;28.33;42.06;94084.34;5004824;28;7260;-60
2022/09/09 12:24:36;;;;;;;;;;;;;;;28.32;41.87;94085.59;5003226;28;8653;-60
2022/09/09 12:27:27;;;;;;;;;;;;;;;28.32;41.81;94091.88;4990987;28;7490;-60
2022/09/09 12:30:17;;;;;;;;;;;;;;;28.32;41.96;94080.81;4985590;28;7800;-60
2022/09/09 12:32:47;;;;;;;;;;;;;;;28.33;42.33;94081.56;5005140;28;10408;-60
2022/09/09 12:35:27;;;;;;;;;;;;;;;28.35;42.00;94079.00;4976515;28;7176;-60
2022/09/09 12:38:01;;;;;;;;;;;;;;;28.38;42.18;94077.19;4978447;28;7284;-60
2022/09/09 12:40:55;;;;;;;;;;;;;;;28.39;41.33;94079.44;5008075;28;6996;-60
2022/09/09 12:43:23;;;;;;;;;;;;;;;28.40;41.16;94075.38;4991583;28;9462;-60
2022/09/09 12:45:58;;;;;;;;;;;;;;;28.38;40.86;94083.47;4975284;28;9347;-60
2022/09/09 12:48:36;;;;;;;;;;;;;;;28.38;40.62;94071.66;5007754;28;7251;-60
2022/09/09 12:51:06;;;;;;;;;;;;;;;28.38;40.77;94072.41;4991070;28;8993;-60
2022/09/09 12:53:39;;;;;;;;;;;;;;;28.37;40.31;94076.44;4986421;28;7529;-60
2022/09/09 12:56:20;;;;;;;;;;;;;;;28.36;40.47;94063.91;4986265;28;7181;-60
2022/09/09 12:58:58;;;;;;;;;;;;;;;28.38;40.91;94066.13;5007883;28;6860;-60
2022/09/09 13:01:33;;;;;;;;;;;;;;;28.38;40.49;94061.34;4991686;28;7349;-60
2022/09/09 13:04:21;;;;;;;;;;;;;;;28.37;41.22;94068.16;4985067;28;7600;-60
2022/09/09 13:06:49;;;;;;;;;;;;;;;28.38;41.03;94068.91;4987985;28;6945;-60
2022/09/09 13:09:22;;;;;;;;;;;;;;;28.38;40.72;94061.34;4992014;28;7341;-60
2022/09/09 13:11:58;;;;;;;;;;;;;;;28.38;40.46;94058.59;5005224;28;7084;-60
2022/09/09 13:14:39;;;;;;;;;;;;;;;28.41;40.69;94053.97;4999705;28;7445;-60
2022/09/09 13:17:17;;;;;;;;;;;;;;;28.43;41.21;94048.69;5008474;28;7358;-60
2022/09/09 13:19:56;;;;;;;;;;;;;;;28.45;41.14;94044.06;5006264;28;9278;-60
2022/09/09 13:22:35;;;;;;;;;;;;;;;28.41;41.81;94049.19;5007191;28;7695;-60
2022/09/09 13:25:25;;;;;;;;;;;;;;;28.41;41.67;94043.66;4981750;28;7282;-60
2022/09/09 13:28:21;;;;;;;;;;;;;;;28.41;41.02;94040.16;4986137;28;9471;-60
2022/09/09 13:31:19;;;;;;;;;;;;;;;28.45;41.17;94035.78;5003462;28;7190;-60
2022/09/09 13:33:45;;;;;;;;;;;;;;;28.43;41.24;94034.84;4990347;28;7262;-60
2022/09/09 13:36:17;;;;;;;;;;;;;;;28.44;41.35;94037.06;4980601;28;9262;-60
2022/09/09 13:38:51;;;;;;;;;;;;;;;28.43;40.85;94040.38;4986180;28;6981;-60
2022/09/09 13:41:53;;;;;;;;;;;;;;;28.42;40.81;94033.34;5006032;28;7242;-60
2022/09/09 13:44:28;;;;;;;;;;;;;;;28.42;40.31;94036.13;4949314;28;7229;-60
2022/09/09 13:47:17;;;;;;;;;;;;;;;28.41;41.20;94029.84;4929261;28;7213;-61
2022/09/09 13:49:43;;;;;;;;;;;;;;;28.42;40.93;94036.13;4949609;28;7622;-60
2022/09/09 13:52:11;;;;;;;;;;;;;;;28.44;41.13;94041.84;4933743;29;7262;-60
2022/09/09 13:54:39;;;;;;;;;;;;;;;28.42;40.96;94039.63;4950298;28;7448;-60
2022/09/09 13:57:14;;;;;;;;;;;;;;;28.43;40.07;94041.09;4927986;28;8580;-60
2022/09/09 13:59:41;;;;;;;;;;;;;;;28.46;40.88;94039.28;4947138;29;8444;-60
2022/09/09 14:02:33;;;;;;;;;;;;;;;28.44;40.87;94034.31;4949746;29;6983;-60
2022/09/09 14:05:22;;;;;;;;;;;;;;;28.46;40.95;94033.75;4949942;29;7342;-60
2022/09/09 14:07:52;;;;;;;;;;;;;;;28.50;40.89;94031.41;4948467;29;8965;-60
2022/09/09 14:10:22;;;;;;;;;;;;;;;28.49;41.00;94027.16;4945566;29;6992;-60
2022/09/09 14:12:52;;;;;;;;;;;;;;;28.47;40.85;94030.44;4929832;29;6909;-60
2022/09/09 14:15:21;;;;;;;;;;;;;;;28.53;41.25;94022.78;4933474;29;7538;-60